LGX74P GCLP-GMMI
Flight info
| Callsign | LGX74P |
|---|---|
| Flight time | N/A |
| Altitude | 36000 |
| Route | KORAL UG5 NISUR |
| Aircraft | A320/M-SDE3FGHIRWY/LB1 |
Departure
| Time | 2026-04-30 14:49 |
|---|---|
| Airport | Gran Canaria Airport (GCLP) |
Arrival
| Time | N/A |
|---|---|
| Airport | Essaouira-Mogador Airport (GMMI) |
| Time | Latitude | Longitude | Altitude | Speed | Heading |
|---|---|---|---|---|---|
| 2026-04-30 14:33 | 27.93883 | -15.38628 | 46 ft | 0 kts | 288° |
| 2026-04-30 14:43 | 27.93895 | -15.38635 | 46 ft | 3 kts | 2° |
| 2026-04-30 14:43 | 27.93916 | -15.38627 | 45 ft | 3 kts | 18° |
| 2026-04-30 14:44 | 27.93943 | -15.38597 | 45 ft | 15 kts | 49° |
| 2026-04-30 14:44 | 27.94033 | -15.38495 | 43 ft | 19 kts | 38° |
| 2026-04-30 14:44 | 27.94146 | -15.38422 | 41 ft | 19 kts | 21° |
| 2026-04-30 14:44 | 27.94266 | -15.38369 | 39 ft | 18 kts | 19° |
| 2026-04-30 14:45 | 27.94383 | -15.38311 | 37 ft | 18 kts | 36° |
| 2026-04-30 14:45 | 27.94452 | -15.38230 | 34 ft | 0 kts | 52° |
| 2026-04-30 14:45 | 27.94455 | -15.38227 | 34 ft | 0 kts | 52° |
| 2026-04-30 14:48 | 27.94455 | -15.38226 | 34 ft | 0 kts | 52° |
| 2026-04-30 14:48 | 27.94461 | -15.38217 | 35 ft | 3 kts | 52° |
| 2026-04-30 14:48 | 27.94489 | -15.38175 | 34 ft | 13 kts | 58° |
| 2026-04-30 14:48 | 27.94435 | -15.38113 | 34 ft | 20 kts | 188° |
| 2026-04-30 14:49 | 27.94102 | -15.38250 | 41 ft | 86 kts | 201° |
| 2026-04-30 14:49 | 27.93360 | -15.38582 | 51 ft | 141 kts | 201° |
| 2026-04-30 14:49 | 27.92417 | -15.39013 | 631 ft | 145 kts | 201° |
| 2026-04-30 14:49 | 27.91481 | -15.39459 | 1331 ft | 147 kts | 199° |
| 2026-04-30 14:50 | 27.89442 | -15.40349 | 2456 ft | 176 kts | 200° |
| 2026-04-30 14:50 | 27.88229 | -15.40875 | 2793 ft | 198 kts | 201° |
| 2026-04-30 14:51 | 27.85328 | -15.42138 | 3580 ft | 248 kts | 202° |
| 2026-04-30 14:51 | 27.83659 | -15.42870 | 4226 ft | 264 kts | 203° |
| 2026-04-30 14:51 | 27.80006 | -15.43550 | 5925 ft | 281 kts | 162° |
| 2026-04-30 14:52 | 27.78393 | -15.42308 | 6828 ft | 287 kts | 129° |
| 2026-04-30 14:52 | 27.77678 | -15.37956 | 8578 ft | 296 kts | 80° |
| 2026-04-30 14:52 | 27.78156 | -15.35679 | 9418 ft | 301 kts | 73° |
| 2026-04-30 14:53 | 27.79529 | -15.31077 | 10679 ft | 325 kts | 69° |
| 2026-04-30 14:53 | 27.80422 | -15.28629 | 10938 ft | 349 kts | 65° |
| 2026-04-30 14:54 | 27.82948 | -15.23544 | 11426 ft | 389 kts | 54° |
| 2026-04-30 14:54 | 27.86488 | -15.18802 | 12698 ft | 399 kts | 42° |
| 2026-04-30 14:55 | 27.90795 | -15.14782 | 13983 ft | 405 kts | 31° |
| 2026-04-30 14:55 | 27.93167 | -15.13124 | 14548 ft | 407 kts | 26° |
| 2026-04-30 14:55 | 27.98365 | -15.10575 | 15683 ft | 409 kts | 14° |
| 2026-04-30 14:56 | 28.03919 | -15.09177 | 16802 ft | 410 kts | 2° |
| 2026-04-30 14:56 | 28.09616 | -15.08992 | 17927 ft | 410 kts | 352° |
| 2026-04-30 14:57 | 28.12449 | -15.09351 | 18473 ft | 410 kts | 346° |
| 2026-04-30 14:57 | 28.18230 | -15.09551 | 19397 ft | 426 kts | 4° |
| 2026-04-30 14:58 | 28.23904 | -15.07232 | 20316 ft | 446 kts | 27° |
| 2026-04-30 14:58 | 28.26402 | -15.05092 | 20761 ft | 456 kts | 39° |
| 2026-04-30 14:58 | 28.30318 | -14.99309 | 21643 ft | 469 kts | 53° |
| 2026-04-30 14:59 | 28.33963 | -14.93115 | 22504 ft | 474 kts | 52° |
| 2026-04-30 15:00 | 28.39554 | -14.83726 | 23719 ft | 483 kts | 52° |
| 2026-04-30 15:00 | 28.43326 | -14.77354 | 24407 ft | 488 kts | 52° |
| 2026-04-30 15:01 | 28.47120 | -14.70909 | 25084 ft | 493 kts | 52° |
| 2026-04-30 15:01 | 28.48382 | -14.68759 | 25299 ft | 495 kts | 52° |
| 2026-04-30 15:01 | 28.52865 | -14.61104 | 26028 ft | 500 kts | 52° |
| 2026-04-30 15:02 | 28.54793 | -14.57811 | 26328 ft | 502 kts | 52° |
| 2026-04-30 15:02 | 28.56733 | -14.54498 | 26607 ft | 505 kts | 52° |
| 2026-04-30 15:03 | 28.62622 | -14.44454 | 27436 ft | 512 kts | 52° |
| 2026-04-30 15:03 | 28.66583 | -14.37683 | 28080 ft | 514 kts | 52° |
| 2026-04-30 15:04 | 28.70509 | -14.30953 | 28862 ft | 513 kts | 51° |
| 2026-04-30 15:04 | 28.76422 | -14.20788 | 30054 ft | 512 kts | 52° |
| 2026-04-30 15:05 | 28.82276 | -14.10695 | 31330 ft | 505 kts | 51° |
| 2026-04-30 15:06 | 28.86160 | -14.03978 | 32028 ft | 503 kts | 51° |
| 2026-04-30 15:06 | 28.89989 | -13.97359 | 32695 ft | 503 kts | 51° |
| 2026-04-30 15:07 | 28.93868 | -13.90654 | 33326 ft | 503 kts | 51° |
| 2026-04-30 15:07 | 28.97690 | -13.84037 | 33999 ft | 502 kts | 50° |
| 2026-04-30 15:08 | 29.01521 | -13.77382 | 34632 ft | 501 kts | 50° |
| 2026-04-30 15:08 | 29.07226 | -13.67443 | 35644 ft | 496 kts | 50° |
| 2026-04-30 15:09 | 29.11001 | -13.60853 | 36097 ft | 495 kts | 50° |
| 2026-04-30 15:10 | 29.18678 | -13.47534 | 36121 ft | 503 kts | 49° |
| 2026-04-30 15:11 | 29.30732 | -13.28030 | 36130 ft | 500 kts | 48° |
| 2026-04-30 15:13 | 29.40667 | -13.11641 | 36146 ft | 501 kts | 48° |
| 2026-04-30 15:14 | 29.54557 | -12.88721 | 36148 ft | 499 kts | 48° |
| 2026-04-30 15:17 | 29.72283 | -12.59273 | 36143 ft | 498 kts | 48° |
| 2026-04-30 15:19 | 29.87874 | -12.32932 | 36148 ft | 497 kts | 49° |